Terminal Aerodrome Forecast
Issued by NWS

Home | Current Version | Previous Version | Graphics & Text | Print | Product List | Glossary On
Versions: 1 2 3 4 5 6 7 8 9 10 11 12 13 14 15 16 17 18 19 20 21 22 23
000
FTUS43 KTOP 241700
TAFMHK
TAF
KMHK 241734Z 2418/2518 19010KT P6SM SCT020 BKN080
      TEMPO 2423/2501 4SM -TSRA OVC025CB
     FM250100 19008KT P6SM BKN050
     FM251200 19006KT P6SM VCSH SCT015 BKN050=

USA.gov is the U.S. government's official web portal to all federal, state and local government web resources and services.